createdAt,value
2018-11-26T00:00:34.551Z,35.83
2018-11-26T00:01:34.490Z,35.85
2018-11-26T00:02:34.480Z,35.75
2018-11-26T00:03:34.508Z,35.73
2018-11-26T00:04:34.525Z,35.83
2018-11-26T00:05:34.439Z,35.63
2018-11-26T00:06:34.453Z,35.93
2018-11-26T00:07:34.440Z,35.35
2018-11-26T00:08:34.395Z,35.75
2018-11-26T00:09:34.400Z,35.64
2018-11-26T00:10:34.371Z,35.55
2018-11-26T00:11:34.457Z,35.55
2018-11-26T00:12:34.363Z,35.75
2018-11-26T00:13:34.366Z,35.33
2018-11-26T00:14:34.323Z,35.53
2018-11-26T00:15:34.346Z,35.55
2018-11-26T00:16:34.322Z,35.55
2018-11-26T00:17:34.304Z,35.64
2018-11-26T00:18:34.308Z,35.95
2018-11-26T00:19:34.294Z,35.75
2018-11-26T00:20:34.327Z,36.15
2018-11-26T00:21:34.266Z,35.63
2018-11-26T00:22:34.232Z,35.53
2018-11-26T00:23:34.228Z,35.83
2018-11-26T00:24:34.246Z,35.44
2018-11-26T00:25:34.251Z,36.15
2018-11-26T00:26:34.202Z,35.85
2018-11-26T00:27:34.193Z,36.05
2018-11-26T00:28:34.188Z,36.16
2018-11-26T00:29:34.174Z,35.97
2018-11-26T00:30:34.203Z,35.77
2018-11-26T00:31:34.211Z,35.95
2018-11-26T00:32:34.143Z,35.97
2018-11-26T00:33:34.138Z,36.47
2018-11-26T00:34:34.121Z,36.47
2018-11-26T00:35:34.126Z,36.16
2018-11-26T00:36:34.107Z,36.36
2018-11-26T00:37:34.069Z,36.36
2018-11-26T00:38:34.051Z,36.27
2018-11-26T00:39:34.069Z,36.35
2018-11-26T00:40:34.036Z,35.95
2018-11-26T00:41:34.024Z,36.25
2018-11-26T00:42:34.005Z,36.05
2018-11-26T00:43:33.995Z,35.95
2018-11-26T00:44:34.003Z,35.95
2018-11-26T00:45:33.972Z,36.15
2018-11-26T00:46:33.999Z,36.05
2018-11-26T00:47:33.973Z,36.35
2018-11-26T00:48:33.966Z,35.85
2018-11-26T00:49:33.954Z,36.05
2018-11-26T00:50:33.941Z,35.85
2018-11-26T00:51:33.965Z,35.75
2018-11-26T00:52:33.916Z,35.85
2018-11-26T00:53:33.885Z,36.05
2018-11-26T00:54:33.887Z,36.15
2018-11-26T00:55:33.862Z,36.05
2018-11-26T00:56:33.886Z,35.85
2018-11-26T00:57:33.874Z,35.85
2018-11-26T00:58:33.851Z,35.55
2018-11-26T00:59:33.820Z,35.64
2018-11-26T01:00:33.809Z,36.13
2018-11-26T01:01:33.812Z,35.85
2018-11-26T01:02:33.788Z,35.83
2018-11-26T01:03:33.777Z,35.85
2018-11-26T01:04:33.876Z,35.85
2018-11-26T01:05:33.778Z,35.83
2018-11-26T01:06:33.765Z,36.13
2018-11-26T01:07:33.723Z,35.53
2018-11-26T01:08:33.725Z,35.85
2018-11-26T01:09:33.721Z,35.75
2018-11-26T01:10:33.726Z,35.73
2018-11-26T01:11:33.687Z,35.83
2018-11-26T01:12:33.701Z,36.13
2018-11-26T01:13:33.677Z,35.64
2018-11-26T01:14:33.688Z,35.64
2018-11-26T01:15:33.753Z,35.55
2018-11-26T01:16:33.655Z,35.75
2018-11-26T01:17:33.643Z,35.95
2018-11-26T01:18:33.619Z,36.05
2018-11-26T01:19:33.627Z,36.05
2018-11-26T01:20:33.592Z,36.25
2018-11-26T01:21:34.650Z,36.67
2018-11-26T01:22:33.592Z,36.67
2018-11-26T01:23:33.576Z,35.85
2018-11-26T01:24:33.537Z,35.55
2018-11-26T01:25:33.587Z,35.85
2018-11-26T01:26:33.573Z,36.15
2018-11-26T01:27:33.526Z,36.25
2018-11-26T01:28:33.517Z,36.25
2018-11-26T01:29:33.501Z,35.55
2018-11-26T01:30:33.501Z,35.85
2018-11-26T01:31:33.479Z,36.45
2018-11-26T01:32:33.478Z,36.25
2018-11-26T01:33:33.433Z,35.85
2018-11-26T01:34:33.532Z,35.64
2018-11-26T01:35:33.411Z,36.05
2018-11-26T01:36:33.400Z,35.83
2018-11-26T01:37:33.408Z,35.85
2018-11-26T01:38:33.384Z,35.83
2018-11-26T01:39:33.433Z,35.83
2018-11-26T01:40:33.361Z,35.83
2018-11-26T01:41:33.351Z,35.85
2018-11-26T01:42:33.391Z,35.73
2018-11-26T01:43:33.340Z,35.73
2018-11-26T01:44:33.335Z,35.85
2018-11-26T01:45:33.306Z,35.85
2018-11-26T01:46:33.300Z,35.83
2018-11-26T01:47:33.309Z,35.64
2018-11-26T01:48:33.281Z,35.85
2018-11-26T01:49:33.275Z,35.85
2018-11-26T01:50:33.242Z,35.93
2018-11-26T01:51:33.228Z,35.85
2018-11-26T01:52:33.223Z,35.83
2018-11-26T01:53:33.248Z,35.75
2018-11-26T01:54:33.221Z,36.13
2018-11-26T01:55:33.211Z,35.83
2018-11-26T01:56:33.194Z,36.15
2018-11-26T01:57:33.253Z,36.13
2018-11-26T01:58:33.170Z,35.63
2018-11-26T01:59:33.137Z,35.83
2018-11-26T02:00:33.133Z,36.03
2018-11-26T02:01:33.132Z,35.83
2018-11-26T02:02:33.124Z,35.85
2018-11-26T02:03:33.115Z,35.64
2018-11-26T02:04:33.228Z,35.85
2018-11-26T02:05:33.096Z,35.95
2018-11-26T02:06:33.127Z,36.75
2018-11-26T02:07:33.161Z,36.35
2018-11-26T02:08:33.069Z,36.35
2018-11-26T02:09:33.035Z,36.45
2018-11-26T02:10:33.033Z,35.97
2018-11-26T02:11:33.015Z,35.86
2018-11-26T02:12:33.084Z,36.16
2018-11-26T02:13:33.025Z,36.16
2018-11-26T02:14:32.984Z,36.07
2018-11-26T02:15:32.975Z,36.07
2018-11-26T02:16:32.956Z,36.15
2018-11-26T02:17:32.946Z,36.05
2018-11-26T02:18:32.960Z,36.25
2018-11-26T02:19:32.959Z,36.05
2018-11-26T02:20:32.942Z,36.65
2018-11-26T02:21:32.931Z,35.55
2018-11-26T02:22:32.932Z,35.85
2018-11-26T02:23:32.896Z,36.23
2018-11-26T02:24:32.864Z,35.95
2018-11-26T02:25:32.845Z,35.63
2018-11-26T02:26:32.839Z,35.83
2018-11-26T02:27:32.826Z,35.83
2018-11-26T02:28:32.827Z,35.83
2018-11-26T02:29:32.820Z,35.83
2018-11-26T02:30:32.820Z,35.83
2018-11-26T02:31:32.787Z,35.83
2018-11-26T02:32:32.772Z,35.73
2018-11-26T02:33:32.760Z,35.83
2018-11-26T02:34:32.801Z,35.63
2018-11-26T02:35:32.736Z,36.13
2018-11-26T02:36:32.724Z,35.93
2018-11-26T02:37:32.719Z,35.53
2018-11-26T02:38:32.791Z,36.23
2018-11-26T02:39:32.809Z,36.05
2018-11-26T02:40:32.738Z,36.13
2018-11-26T02:41:32.669Z,36.23
2018-11-26T02:42:32.689Z,36.23
2018-11-26T02:43:32.661Z,36.13
2018-11-26T02:44:32.640Z,36.23
2018-11-26T02:45:32.728Z,35.75
2018-11-26T02:46:32.649Z,35.73
2018-11-26T02:47:32.633Z,35.53
2018-11-26T02:48:32.597Z,36.33
2018-11-26T02:49:32.609Z,36.23
2018-11-26T02:50:32.562Z,36.23
2018-11-26T02:51:32.551Z,36.13
2018-11-26T02:52:32.560Z,36.35
2018-11-26T02:53:32.546Z,35.55
2018-11-26T02:54:32.534Z,35.75
2018-11-26T02:55:32.511Z,36.15
2018-11-26T02:56:32.491Z,36.65
2018-11-26T02:57:32.496Z,36.05
2018-11-26T02:58:32.493Z,36.35
2018-11-26T02:59:32.460Z,36.35
2018-11-26T03:00:32.475Z,36.25
2018-11-26T03:01:32.472Z,36.27
2018-11-26T03:02:32.450Z,35.77
2018-11-26T03:03:32.447Z,36.05
2018-11-26T03:04:32.442Z,36.15
2018-11-26T03:05:32.418Z,36.07
2018-11-26T03:06:32.394Z,35.95
2018-11-26T03:07:32.377Z,36.45
2018-11-26T03:08:32.428Z,36.25
2018-11-26T03:09:32.431Z,36.15
2018-11-26T03:10:32.434Z,35.95
2018-11-26T03:11:32.325Z,36.25
2018-11-26T03:12:32.324Z,36.25
2018-11-26T03:13:32.307Z,36.65
2018-11-26T03:14:32.310Z,36.75
2018-11-26T03:15:32.285Z,35.95
2018-11-26T03:16:32.275Z,36.73
2018-11-26T03:17:32.270Z,35.93
2018-11-26T03:18:32.252Z,35.73
2018-11-26T03:19:32.259Z,35.83
2018-11-26T03:20:32.267Z,36.25
2018-11-26T03:21:32.221Z,36.13
2018-11-26T03:22:32.303Z,36.13
2018-11-26T03:23:32.211Z,36.03
2018-11-26T03:24:32.198Z,36.13
2018-11-26T03:25:32.250Z,35.83
2018-11-26T03:26:32.155Z,35.43
2018-11-26T03:27:32.165Z,35.83
2018-11-26T03:28:32.155Z,35.73
2018-11-26T03:29:32.146Z,35.83
2018-11-26T03:30:32.155Z,36.13
2018-11-26T03:31:32.124Z,36.23
2018-11-26T03:32:32.090Z,36.23
2018-11-26T03:33:32.108Z,35.83
2018-11-26T03:34:32.163Z,36.03
2018-11-26T03:35:32.111Z,36.23
2018-11-26T03:36:32.041Z,36.23
2018-11-26T03:37:32.028Z,35.93
2018-11-26T03:38:32.053Z,35.73
2018-11-26T03:39:32.020Z,36.33
2018-11-26T03:40:32.019Z,35.53
2018-11-26T03:41:32.080Z,35.85
2018-11-26T03:42:31.976Z,36.35
2018-11-26T03:43:31.989Z,36.35
2018-11-26T03:44:31.976Z,36.36
2018-11-26T03:45:31.948Z,36.05
2018-11-26T03:46:31.943Z,36.15
2018-11-26T03:47:31.918Z,35.95
2018-11-26T03:48:31.949Z,36.15
2018-11-26T03:49:31.921Z,36.15
2018-11-26T03:50:31.881Z,36.16
2018-11-26T03:51:31.871Z,36.15
2018-11-26T03:52:31.979Z,36.15
2018-11-26T03:53:31.861Z,36.15
2018-11-26T03:54:31.852Z,36.25
2018-11-26T03:55:31.847Z,36.15
2018-11-26T03:56:31.849Z,36.25
2018-11-26T03:57:31.838Z,35.93
2018-11-26T03:58:31.795Z,35.75
2018-11-26T03:59:31.794Z,35.53
2018-11-26T04:00:31.782Z,35.53
2018-11-26T04:01:31.794Z,35.53
2018-11-26T04:02:31.759Z,35.93
2018-11-26T04:03:31.740Z,35.53
2018-11-26T04:04:36.766Z,35.73
2018-11-26T04:05:31.723Z,35.73
2018-11-26T04:06:31.711Z,35.73
2018-11-26T04:07:31.696Z,35.73
2018-11-26T04:08:31.714Z,35.83
2018-11-26T04:09:31.707Z,35.83
2018-11-26T04:10:31.736Z,35.93
2018-11-26T04:11:31.653Z,35.93
2018-11-26T04:12:31.636Z,36.23
2018-11-26T04:13:31.630Z,36.25
2018-11-26T04:14:31.660Z,36.05
2018-11-26T04:15:31.641Z,36.03
2018-11-26T04:16:31.602Z,36.25
2018-11-26T04:17:31.584Z,35.93
2018-11-26T04:18:31.589Z,36.43
2018-11-26T04:19:31.564Z,36.23
2018-11-26T04:20:31.565Z,36.43
2018-11-26T04:21:31.604Z,36.15
2018-11-26T04:22:31.562Z,35.75
2018-11-26T04:23:31.512Z,35.73
2018-11-26T04:24:31.526Z,35.93
2018-11-26T04:25:31.495Z,35.73
2018-11-26T04:26:31.505Z,35.83
2018-11-26T04:27:31.472Z,35.93
2018-11-26T04:28:31.491Z,35.64
2018-11-26T04:29:31.471Z,35.85
2018-11-26T04:30:31.468Z,36.45
2018-11-26T04:31:31.453Z,36.35
2018-11-26T04:32:31.446Z,36.45
2018-11-26T04:33:31.397Z,36.05
2018-11-26T04:34:31.490Z,36.15
2018-11-26T04:35:31.377Z,36.15
2018-11-26T04:36:31.391Z,36.16
2018-11-26T04:37:31.404Z,35.64
2018-11-26T04:38:31.362Z,36.45
2018-11-26T04:39:31.393Z,36.77
2018-11-26T04:40:31.314Z,36.47
2018-11-26T04:41:31.320Z,36.65
2018-11-26T04:42:31.299Z,36.75
2018-11-26T04:43:31.289Z,36.57
2018-11-26T04:44:31.302Z,36.25
2018-11-26T04:45:31.309Z,35.95
2018-11-26T04:46:31.256Z,35.97
2018-11-26T04:47:31.237Z,36.15
2018-11-26T04:48:31.243Z,35.95
2018-11-26T04:49:31.219Z,36.25
2018-11-26T04:50:31.223Z,36.35
2018-11-26T04:51:31.229Z,36.25
2018-11-26T04:52:31.211Z,36.05
2018-11-26T04:53:31.195Z,36.25
2018-11-26T04:54:31.211Z,35.95
2018-11-26T04:55:31.227Z,36.23
2018-11-26T04:56:31.163Z,35.93
2018-11-26T04:57:31.677Z,35.95
2018-11-26T04:58:31.136Z,35.63
2018-11-26T04:59:31.136Z,35.63
2018-11-26T05:00:31.164Z,35.73
2018-11-26T05:01:31.226Z,35.93
2018-11-26T05:02:31.104Z,35.85
2018-11-26T05:03:31.066Z,35.95
2018-11-26T05:04:31.105Z,36.15
2018-11-26T05:05:31.071Z,36.03
2018-11-26T05:06:31.032Z,36.03
2018-11-26T05:07:31.084Z,36.25
2018-11-26T05:08:31.016Z,36.45
2018-11-26T05:09:31.065Z,36.05
2018-11-26T05:10:31.015Z,36.05
2018-11-26T05:11:30.967Z,36.73
2018-11-26T05:12:30.970Z,36.23
2018-11-26T05:13:31.128Z,36.73
2018-11-26T05:14:31.037Z,36.03
2018-11-26T05:15:30.953Z,36.63
2018-11-26T05:16:30.965Z,36.23
2018-11-26T05:17:30.937Z,36.35
2018-11-26T05:18:30.899Z,36.35
2018-11-26T05:19:30.879Z,36.05
2018-11-26T05:20:30.961Z,36.15
2018-11-26T05:21:30.900Z,36.05
2018-11-26T05:22:30.875Z,36.15
2018-11-26T05:23:30.839Z,36.05
2018-11-26T05:24:30.843Z,35.97
2018-11-26T05:25:30.831Z,36.15
2018-11-26T05:26:30.811Z,36.05
2018-11-26T05:27:30.803Z,36.15
2018-11-26T05:28:30.841Z,36.07
2018-11-26T05:29:30.799Z,36.15
2018-11-26T05:30:30.822Z,36.05
2018-11-26T05:31:30.746Z,36.15
2018-11-26T05:32:30.805Z,35.95
2018-11-26T05:33:30.723Z,36.15
2018-11-26T05:34:30.725Z,35.95
2018-11-26T05:35:30.733Z,36.35
2018-11-26T05:36:30.685Z,36.15
2018-11-26T05:37:30.732Z,36.25
2018-11-26T05:38:30.663Z,36.23
2018-11-26T05:39:30.650Z,36.35
2018-11-26T05:40:30.659Z,36.45
2018-11-26T05:41:30.633Z,36.33
2018-11-26T05:42:30.622Z,36.45
2018-11-26T05:43:30.614Z,36.43
2018-11-26T05:44:30.598Z,36.43
2018-11-26T05:45:30.651Z,36.25
2018-11-26T05:46:30.613Z,36.03
2018-11-26T05:47:30.597Z,36.23
2018-11-26T05:48:30.564Z,36.35
2018-11-26T05:49:30.597Z,36.03
2018-11-26T05:50:30.547Z,36.43
2018-11-26T05:51:30.569Z,36.54
2018-11-26T05:52:30.516Z,35.93
2018-11-26T05:53:30.517Z,35.73
2018-11-26T05:54:30.490Z,35.73
2018-11-26T05:55:30.494Z,35.83
2018-11-26T05:56:30.535Z,35.73
2018-11-26T05:57:30.476Z,35.93
2018-11-26T05:58:30.529Z,35.53
2018-11-26T05:59:30.438Z,35.53
2018-11-26T06:00:30.745Z,35.53
2018-11-26T06:01:30.479Z,35.83
2018-11-26T06:02:30.488Z,35.73
2018-11-26T06:03:30.399Z,35.73
2018-11-26T06:04:30.463Z,35.63
2018-11-26T06:05:30.456Z,36.03
2018-11-26T06:06:30.396Z,36.03
2018-11-26T06:07:30.488Z,36.05
2018-11-26T06:08:30.347Z,36.05
2018-11-26T06:09:30.320Z,36.25
2018-11-26T06:10:30.316Z,36.16
2018-11-26T06:11:30.309Z,35.97
2018-11-26T06:12:30.319Z,36.16
2018-11-26T06:13:30.270Z,35.75
2018-11-26T06:14:30.258Z,35.75
2018-11-26T06:15:30.354Z,36.47
2018-11-26T06:16:30.710Z,36.67
2018-11-26T06:17:30.252Z,36.87
2018-11-26T06:18:30.254Z,36.77
2018-11-26T06:19:30.212Z,36.75
2018-11-26T06:20:30.215Z,37.15
2018-11-26T06:21:30.215Z,36.65
2018-11-26T06:22:30.179Z,36.75
2018-11-26T06:23:30.158Z,35.85
2018-11-26T06:24:30.157Z,36.13
2018-11-26T06:25:30.169Z,35.75
2018-11-26T06:26:30.243Z,36.25
2018-11-26T06:27:30.115Z,36.65
2018-11-26T06:28:30.185Z,38.04
2018-11-26T06:29:30.117Z,37.74
2018-11-26T06:30:30.104Z,36.73
2018-11-26T06:31:30.071Z,36.73
2018-11-26T06:32:30.101Z,37.44
2018-11-26T06:33:30.046Z,36.33
2018-11-26T06:34:30.105Z,36.35
2018-11-26T06:35:30.031Z,36.54
2018-11-26T06:36:30.022Z,37.04
2018-11-26T06:37:30.055Z,37.04
2018-11-26T06:38:30.042Z,36.83
2018-11-26T06:39:30.001Z,37.04
2018-11-26T06:40:29.981Z,36.75
2018-11-26T06:41:29.997Z,36.83
2018-11-26T06:42:29.972Z,36.55
2018-11-26T06:43:29.947Z,36.73
2018-11-26T06:44:29.920Z,37.04
2018-11-26T06:45:29.925Z,37.05
2018-11-26T06:46:29.923Z,37.05
2018-11-26T06:47:29.889Z,37.05
2018-11-26T06:48:29.892Z,36.63
2018-11-26T06:49:29.884Z,36.05
2018-11-26T06:50:29.863Z,35.73
2018-11-26T06:51:29.845Z,36.33
2018-11-26T06:52:29.839Z,35.73
2018-11-26T06:53:29.814Z,36.75
2018-11-26T06:54:29.809Z,36.55
2018-11-26T06:55:29.849Z,36.65
2018-11-26T06:56:29.798Z,36.55
2018-11-26T06:57:29.778Z,36.95
2018-11-26T06:58:29.788Z,36.65
2018-11-26T06:59:29.810Z,36.55
2018-11-26T07:00:29.768Z,36.55
2018-11-26T07:01:29.743Z,36.67
2018-11-26T07:02:29.946Z,36.35
2018-11-26T07:03:29.793Z,36.47
2018-11-26T07:04:29.750Z,36.25
2018-11-26T07:05:29.688Z,36.47
2018-11-26T07:06:29.704Z,36.25
2018-11-26T07:07:29.663Z,36.77
2018-11-26T07:08:29.694Z,36.87
2018-11-26T07:09:29.675Z,37.37
2018-11-26T07:10:29.641Z,37.27
2018-11-26T07:11:29.636Z,37.47
2018-11-26T07:12:29.610Z,37.37
2018-11-26T07:13:29.932Z,37.17
2018-11-26T07:14:29.596Z,37.29
2018-11-26T07:15:29.600Z,37.08
2018-11-26T07:16:29.618Z,36.67
2018-11-26T07:17:29.589Z,36.97
2018-11-26T07:18:29.558Z,37.08
2018-11-26T07:19:29.541Z,37.19
2018-11-26T07:20:29.552Z,36.58
2018-11-26T07:21:29.543Z,36.58
2018-11-26T07:22:29.531Z,36.47
2018-11-26T07:23:29.502Z,37.29
2018-11-26T07:24:29.511Z,37.19
2018-11-26T07:25:29.470Z,37.49
2018-11-26T07:26:29.502Z,37.67
2018-11-26T07:27:29.435Z,38.28
2018-11-26T07:28:29.430Z,37.87
2018-11-26T07:29:29.435Z,38.07
2018-11-26T07:30:29.428Z,38.07
2018-11-26T07:31:29.406Z,37.37
2018-11-26T07:32:29.410Z,37.27
2018-11-26T07:33:29.363Z,37.27
2018-11-26T07:34:29.549Z,37.27
2018-11-26T07:35:29.362Z,37.49
2018-11-26T07:36:29.332Z,36.99
2018-11-26T07:37:29.328Z,37.49
2018-11-26T07:38:29.348Z,37.49
2018-11-26T07:39:29.317Z,38.09
2018-11-26T07:40:29.462Z,37.89
2018-11-26T07:41:29.282Z,38.20
2018-11-26T07:42:29.270Z,37.69
2018-11-26T07:43:29.250Z,37.69
2018-11-26T07:44:29.252Z,37.89
2018-11-26T07:45:29.343Z,37.79
2018-11-26T07:46:29.302Z,37.89
2018-11-26T07:47:29.287Z,37.99
2018-11-26T07:48:29.198Z,37.89
2018-11-26T07:49:29.201Z,37.99
2018-11-26T07:50:29.247Z,37.59
2018-11-26T07:51:29.201Z,37.79
2018-11-26T07:52:29.202Z,37.77
2018-11-26T07:53:29.174Z,37.29
2018-11-26T07:54:29.131Z,37.39
2018-11-26T07:55:29.166Z,37.57
2018-11-26T07:56:29.102Z,37.67
2018-11-26T07:57:29.094Z,38.07
2018-11-26T07:58:29.106Z,37.27
2018-11-26T07:59:29.094Z,37.35
2018-11-26T08:00:29.149Z,36.75
2018-11-26T08:01:29.113Z,36.95
2018-11-26T08:02:29.107Z,36.95
2018-11-26T08:03:29.043Z,37.55
2018-11-26T08:04:29.120Z,37.55
2018-11-26T08:05:29.052Z,37.05
2018-11-26T08:06:29.000Z,36.75
2018-11-26T08:07:29.024Z,36.75
2018-11-26T08:08:28.973Z,36.54
2018-11-26T08:09:29.027Z,37.94
2018-11-26T08:10:29.039Z,38.04
2018-11-26T08:11:28.965Z,38.04
2018-11-26T08:12:28.944Z,37.84
2018-11-26T08:13:28.943Z,38.24
2018-11-26T08:14:28.898Z,37.54
2018-11-26T08:15:28.918Z,37.54
2018-11-26T08:16:28.889Z,38.04
2018-11-26T08:17:28.880Z,37.63
2018-11-26T08:18:28.910Z,37.94
2018-11-26T08:19:28.849Z,37.54
2018-11-26T08:20:28.845Z,38.24
2018-11-26T08:21:28.826Z,37.74
2018-11-26T08:22:28.828Z,37.74
2018-11-26T08:23:28.825Z,37.94
2018-11-26T08:24:28.786Z,37.42
2018-11-26T08:25:28.840Z,37.74
2018-11-26T08:26:28.801Z,37.84
2018-11-26T08:27:28.792Z,37.92
2018-11-26T08:28:28.772Z,37.63
2018-11-26T08:29:29.738Z,38.12
2018-11-26T08:30:28.726Z,37.63
2018-11-26T08:31:28.721Z,37.84
2018-11-26T08:32:34.054Z,37.74
2018-11-26T08:33:29.699Z,37.74
2018-11-26T08:34:28.767Z,37.94
2018-11-26T08:35:28.685Z,38.84
2018-11-26T08:36:28.670Z,38.34
2018-11-26T08:37:28.640Z,38.74
2018-11-26T08:38:28.636Z,39.34
2018-11-26T08:39:28.616Z,39.34
2018-11-26T08:40:28.620Z,39.14
2018-11-26T08:41:28.620Z,39.45
2018-11-26T08:42:28.606Z,38.84
2018-11-26T08:43:28.641Z,39.12
2018-11-26T08:44:28.585Z,38.72
2018-11-26T08:45:28.572Z,38.32
2018-11-26T08:46:28.883Z,38.53
2018-11-26T08:47:28.526Z,38.82
2018-11-26T08:48:28.534Z,39.23
2018-11-26T08:49:28.594Z,39.23
2018-11-26T08:50:28.503Z,39.12
2018-11-26T08:51:28.480Z,38.62
2018-11-26T08:52:28.488Z,37.90
2018-11-26T08:53:28.537Z,38.10
2018-11-26T08:54:28.504Z,38.31
2018-11-26T08:55:28.752Z,37.50
2018-11-26T08:56:28.576Z,38.40
2018-11-26T08:57:28.431Z,38.20
2018-11-26T08:58:28.402Z,37.90
2018-11-26T08:59:28.435Z,38.20
2018-11-26T09:00:28.690Z,38.51
2018-11-26T09:01:28.382Z,39.31
2018-11-26T09:02:28.358Z,39.21
2018-11-26T09:03:28.358Z,38.81
2018-11-26T09:04:28.421Z,38.31
2018-11-26T09:05:28.346Z,37.90
2018-11-26T09:06:28.334Z,38.51
2018-11-26T09:07:28.370Z,38.10
2018-11-26T09:08:28.294Z,38.20
2018-11-26T09:09:32.772Z,38.10
2018-11-26T09:10:28.311Z,37.90
2018-11-26T09:11:28.405Z,38.31
2018-11-26T09:12:28.289Z,38.70
2018-11-26T09:13:28.384Z,38.42
2018-11-26T09:14:28.230Z,38.32
2018-11-26T09:15:28.323Z,38.60
2018-11-26T09:16:28.208Z,38.10
2018-11-26T09:17:28.190Z,38.62
2018-11-26T09:18:28.187Z,38.62
2018-11-26T09:19:28.171Z,38.32
2018-11-26T09:20:28.845Z,38.62
2018-11-26T09:21:28.164Z,38.62
2018-11-26T09:22:28.222Z,38.42
2018-11-26T09:23:28.124Z,38.54
2018-11-26T09:24:28.142Z,38.53
2018-11-26T09:25:28.108Z,38.64
2018-11-26T09:26:28.148Z,38.64
2018-11-26T09:27:28.133Z,38.74
2018-11-26T09:28:28.147Z,38.64
2018-11-26T09:29:28.071Z,38.44
2018-11-26T09:30:28.047Z,38.53
2018-11-26T09:31:28.061Z,38.12
2018-11-26T09:32:28.033Z,37.72
2018-11-26T09:33:28.048Z,37.92
2018-11-26T09:34:28.145Z,37.82
2018-11-26T09:35:28.038Z,38.53
2018-11-26T09:36:27.991Z,38.22
2018-11-26T09:37:27.985Z,38.53
2018-11-26T09:38:27.964Z,38.53
2018-11-26T09:39:28.015Z,38.42
2018-11-26T09:40:27.931Z,37.92
2018-11-26T09:41:27.950Z,38.62
2018-11-26T09:42:27.923Z,38.82
2018-11-26T09:43:27.934Z,37.72
2018-11-26T09:44:27.889Z,38.42
2018-11-26T09:45:27.875Z,37.52
2018-11-26T09:46:27.881Z,38.42
2018-11-26T09:47:27.906Z,38.82
2018-11-26T09:48:27.895Z,38.22
2018-11-26T09:49:27.849Z,37.92
2018-11-26T09:50:27.825Z,38.53
2018-11-26T09:51:27.813Z,38.22
2018-11-26T09:52:27.797Z,38.12
2018-11-26T09:53:27.788Z,38.32
2018-11-26T09:54:27.777Z,38.12
2018-11-26T09:55:27.760Z,37.92
2018-11-26T09:56:27.771Z,38.81
2018-11-26T09:57:27.750Z,38.31
2018-11-26T09:58:27.726Z,37.10
2018-11-26T09:59:27.729Z,38.20
2018-11-26T10:00:27.707Z,38.20
2018-11-26T10:01:27.722Z,38.10
2018-11-26T10:02:27.682Z,38.60
2018-11-26T10:03:27.676Z,39.01
2018-11-26T10:04:27.794Z,39.31
2018-11-26T10:05:27.654Z,38.51
2018-11-26T10:06:27.638Z,38.92
2018-11-26T10:07:27.683Z,38.72
2018-11-26T10:08:27.618Z,38.62
2018-11-26T10:09:27.630Z,38.72
2018-11-26T10:10:27.597Z,38.62
2018-11-26T10:11:27.598Z,39.03
2018-11-26T10:12:27.652Z,39.23
2018-11-26T10:13:27.853Z,38.92
2018-11-26T10:14:27.550Z,38.92
2018-11-26T10:15:27.733Z,39.12
2018-11-26T10:16:27.579Z,38.92
2018-11-26T10:17:27.544Z,39.12
2018-11-26T10:18:27.537Z,39.32
2018-11-26T10:19:28.579Z,39.03
2018-11-26T10:20:27.483Z,38.92
2018-11-26T10:21:27.492Z,39.32
2018-11-26T10:22:27.497Z,39.12
2018-11-26T10:23:27.487Z,39.31
2018-11-26T10:24:27.444Z,39.51
2018-11-26T10:25:27.423Z,39.40
2018-11-26T10:26:27.504Z,39.01
2018-11-26T10:27:27.425Z,38.90
2018-11-26T10:28:27.455Z,39.29
2018-11-26T10:29:27.401Z,38.90
2018-11-26T10:30:27.375Z,38.68
2018-11-26T10:31:27.379Z,38.89
2018-11-26T10:32:27.362Z,39.49
2018-11-26T10:33:27.350Z,39.18
2018-11-26T10:34:32.380Z,39.09
2018-11-26T10:35:27.402Z,39.29
2018-11-26T10:36:27.376Z,39.09
2018-11-26T10:37:27.291Z,38.89
2018-11-26T10:38:27.288Z,38.68
2018-11-26T10:39:27.315Z,38.51
2018-11-26T10:40:28.195Z,38.51
2018-11-26T10:41:27.284Z,39.40
2018-11-26T10:42:27.244Z,39.40
2018-11-26T10:43:27.239Z,38.92
2018-11-26T10:44:27.229Z,38.90
2018-11-26T10:45:27.223Z,38.70
2018-11-26T10:46:27.210Z,38.72
2018-11-26T10:47:27.198Z,39.03
2018-11-26T10:48:27.221Z,38.82
2018-11-26T10:49:27.158Z,38.92
2018-11-26T10:50:27.157Z,39.03
2018-11-26T10:51:27.168Z,38.81
2018-11-26T10:52:27.155Z,39.23
2018-11-26T10:53:27.111Z,39.31
2018-11-26T10:54:27.098Z,38.31
2018-11-26T10:55:27.125Z,38.90
2018-11-26T10:56:27.112Z,38.60
2018-11-26T10:57:27.073Z,38.51
2018-11-26T10:58:27.054Z,38.59
2018-11-26T10:59:27.055Z,38.89
2018-11-26T11:00:27.109Z,38.79
2018-11-26T11:01:27.039Z,38.68
2018-11-26T11:02:27.066Z,37.79
2018-11-26T11:03:27.145Z,38.18
2018-11-26T11:04:27.043Z,37.88
2018-11-26T11:05:26.996Z,38.39
2018-11-26T11:06:26.976Z,38.39
2018-11-26T11:07:26.973Z,37.68
2018-11-26T11:08:26.940Z,37.98
2018-11-26T11:09:26.931Z,37.88
2018-11-26T11:10:26.948Z,38.09
2018-11-26T11:11:26.949Z,37.79
2018-11-26T11:12:26.958Z,37.68
2018-11-26T11:13:26.884Z,38.49
2018-11-26T11:14:26.879Z,37.88
2018-11-26T11:15:26.887Z,37.88
2018-11-26T11:16:26.870Z,37.90
2018-11-26T11:17:26.861Z,38.20
2018-11-26T11:18:26.834Z,38.70
2018-11-26T11:19:26.885Z,38.51
2018-11-26T11:20:26.826Z,38.70
2018-11-26T11:21:27.366Z,38.51
2018-11-26T11:22:26.802Z,38.51
2018-11-26T11:23:26.794Z,38.70
2018-11-26T11:24:26.794Z,38.40
2018-11-26T11:25:26.781Z,38.51
2018-11-26T11:26:26.803Z,38.70
2018-11-26T11:27:26.754Z,38.40
2018-11-26T11:28:26.730Z,38.60
2018-11-26T11:29:26.736Z,38.39
2018-11-26T11:30:26.736Z,38.49
2018-11-26T11:31:26.717Z,38.79
2018-11-26T11:32:26.685Z,38.49
2018-11-26T11:34:26.692Z,38.49
2018-11-26T11:35:26.660Z,37.77
2018-11-26T11:36:26.635Z,37.66
2018-11-26T11:37:26.620Z,37.77
2018-11-26T11:38:26.712Z,38.09
2018-11-26T11:39:26.631Z,37.57
2018-11-26T11:40:26.598Z,37.77
2018-11-26T11:41:26.635Z,38.49
2018-11-26T11:42:26.558Z,37.88
2018-11-26T11:43:26.548Z,37.79
2018-11-26T11:44:26.560Z,38.39
2018-11-26T11:45:26.541Z,38.79
2018-11-26T11:46:26.538Z,38.29
2018-11-26T11:47:26.505Z,37.88
2018-11-26T11:48:26.490Z,38.00
2018-11-26T11:49:27.145Z,37.90
2018-11-26T11:50:26.531Z,37.90
2018-11-26T11:51:26.460Z,37.90
2018-11-26T11:52:26.497Z,38.60
2018-11-26T11:53:26.436Z,38.60
2018-11-26T11:54:26.436Z,38.60
2018-11-26T11:55:26.428Z,38.60
2018-11-26T11:56:26.498Z,38.81
2018-11-26T11:57:26.404Z,37.90
2018-11-26T11:58:26.392Z,38.40
2018-11-26T11:59:26.406Z,38.62
2018-11-26T12:00:26.401Z,37.60
2018-11-26T12:01:26.347Z,37.90
2018-11-26T12:02:26.373Z,37.50
2018-11-26T12:03:26.326Z,37.40
2018-11-26T12:04:26.341Z,36.58
2018-11-26T12:05:26.466Z,36.48
2018-11-26T12:06:26.315Z,37.28
2018-11-26T12:07:26.301Z,37.48
2018-11-26T12:08:26.267Z,37.28
2018-11-26T12:09:26.298Z,37.38
2018-11-26T12:10:26.246Z,36.57
2018-11-26T12:11:26.239Z,36.16
2018-11-26T12:12:26.262Z,36.98
2018-11-26T12:13:26.218Z,37.08
2018-11-26T12:14:26.202Z,37.08
2018-11-26T12:15:26.278Z,37.08
2018-11-26T12:16:26.188Z,36.88
2018-11-26T12:17:26.179Z,36.68
2018-11-26T12:18:26.226Z,37.20
2018-11-26T12:19:26.143Z,36.68
2018-11-26T12:20:26.168Z,36.58
2018-11-26T12:21:26.128Z,36.58
2018-11-26T12:22:26.128Z,36.68
2018-11-26T12:23:26.128Z,36.80
2018-11-26T12:24:26.087Z,37.48
2018-11-26T12:25:26.196Z,37.48
2018-11-26T12:26:26.065Z,37.50
2018-11-26T12:27:26.057Z,37.20
2018-11-26T12:28:26.113Z,36.80
2018-11-26T12:29:26.031Z,36.98
2018-11-26T12:30:26.363Z,36.98
2018-11-26T12:31:26.012Z,36.48
2018-11-26T12:32:26.043Z,36.48
2018-11-26T12:33:26.001Z,37.28
2018-11-26T12:34:26.092Z,36.88
2018-11-26T12:35:25.978Z,38.27
2018-11-26T12:36:26.005Z,37.79
2018-11-26T12:37:25.942Z,37.68
2018-11-26T12:38:25.942Z,38.27
2018-11-26T12:39:25.937Z,38.79
2018-11-26T12:40:25.907Z,35.60
2018-11-26T12:41:25.901Z,43.08
2018-11-26T12:42:25.910Z,52.02
2018-11-26T12:43:25.889Z,58.04
2018-11-26T12:44:25.863Z,66.03
2018-11-26T12:45:25.854Z,68.60
2018-11-26T12:46:25.851Z,64.56
2018-11-26T12:47:25.835Z,61.56
2018-11-26T12:48:25.875Z,57.56
2018-11-26T12:49:25.885Z,55.02
2018-11-26T12:50:25.809Z,52.08
2018-11-26T12:51:25.806Z,49.56
2018-11-26T12:52:25.813Z,47.47
2018-11-26T12:53:25.783Z,45.42